Time;durP1;ratioP1;P1;durP2;ratioP2;P2;SDS_P1;SDS_P2;PMS_P1;PMS_P2;Temp;Humidity;BMP_temperature;BMP_pressure;BME280_temperature;BME280_humidity;BME280_pressure;Samples;Min_cycle;Max_cycle;Signal;HPM_P1;HPM_P2
2022/07/24 00:02:13;;;;;;;1.33;0.80;;;14.50;99.90;;;;;;6246297;23;20012;-87
2022/07/24 00:04:39;;;;;;;1.25;0.60;;;14.50;99.90;;;;;;6219009;23;20429;-87
2022/07/24 00:07:04;;;;;;;0.70;0.60;;;14.50;99.90;;;;;;6246271;23;20059;-86
2022/07/24 00:09:30;;;;;;;0.77;0.70;;;14.50;99.90;;;;;;6218986;23;20083;-87
2022/07/24 00:11:56;;;;;;;0.77;0.70;;;14.00;99.90;;;;;;6218630;23;20024;-87
2022/07/24 00:14:22;;;;;;;0.75;0.50;;;14.50;99.90;;;;;;6218792;23;20024;-87
2022/07/24 00:16:48;;;;;;;1.60;0.52;;;15.30;99.90;;;;;;6218470;23;20052;-87
2022/07/24 00:19:14;;;;;;;0.90;0.60;;;14.50;99.90;;;;;;6218622;23;20502;-86
2022/07/24 00:21:39;;;;;;;0.63;0.50;;;14.50;99.90;;;;;;6245650;23;20340;-86
2022/07/24 00:24:05;;;;;;;1.45;0.70;;;14.50;99.90;;;;;;6218920;23;20024;-86
2022/07/24 00:26:31;;;;;;;0.77;0.60;;;14.50;99.90;;;;;;6218520;23;20016;-86
2022/07/24 00:28:57;;;;;;;0.68;0.68;;;14.40;99.90;;;;;;6218600;23;20347;-87
2022/07/24 00:31:23;;;;;;;1.98;0.70;;;14.50;99.90;;;;;;6219215;23;20463;-86
2022/07/24 00:33:48;;;;;;;1.83;0.77;;;14.50;99.90;;;;;;6245031;23;20066;-85
2022/07/24 00:36:15;;;;;;;2.47;0.80;;;14.40;99.90;;;;;;6245664;23;20089;-87
2022/07/24 00:38:41;;;;;;;1.20;0.75;;;14.90;99.90;;;;;;6218443;23;20038;-86
2022/07/24 00:41:07;;;;;;;2.55;0.80;;;14.40;99.90;;;;;;6245526;23;20343;-87
2022/07/24 00:43:33;;;;;;;1.20;0.70;;;14.40;99.90;;;;;;6218523;23;20143;-87
2022/07/24 00:45:59;;;;;;;1.63;0.95;;;14.40;99.90;;;;;;6218460;23;20320;-87
2022/07/24 00:48:25;;;;;;;1.23;0.80;;;14.30;99.90;;;;;;6218534;23;20078;-86
2022/07/24 00:50:51;;;;;;;0.93;0.50;;;14.30;99.90;;;;;;6245739;23;20016;-86
2022/07/24 00:53:17;;;;;;;1.02;0.60;;;14.30;99.90;;;;;;6245083;23;20725;-87
2022/07/24 00:55:43;;;;;;;0.90;0.50;;;14.30;99.90;;;;;;6245446;23;20020;-85
2022/07/24 00:58:09;;;;;;;1.45;0.70;;;14.30;99.90;;;;;;6218406;23;20016;-86
2022/07/24 01:00:34;;;;;;;1.00;0.70;;;13.70;99.90;;;;;;6218353;23;20031;-87
2022/07/24 01:03:00;;;;;;;1.70;0.80;;;14.30;99.90;;;;;;6218412;23;20043;-86
2022/07/24 01:05:26;;;;;;;3.20;0.88;;;14.30;99.90;;;;;;6218138;23;20012;-85
2022/07/24 01:07:51;;;;;;;1.90;0.75;;;14.30;99.90;;;;;;6245357;23;20017;-86
2022/07/24 01:10:17;;;;;;;2.65;0.90;;;14.20;99.90;;;;;;6245109;23;20016;-87
2022/07/24 01:12:43;;;;;;;2.35;0.80;;;14.30;99.90;;;;;;6218353;23;20012;-86
2022/07/24 01:15:10;;;;;;;1.00;0.73;;;14.20;99.90;;;;;;6245547;23;20016;-87
2022/07/24 01:17:39;;;;;;;1.50;0.90;;;14.20;99.90;;;;;;6218095;23;20028;-86
2022/07/24 01:20:07;;;;;;;1.77;0.80;;;14.90;99.90;;;;;;6245086;23;20020;-86
2022/07/24 01:22:32;;;;;;;1.50;0.82;;;14.20;99.90;;;;;;6218549;23;20016;-86
2022/07/24 01:24:58;;;;;;;1.90;0.90;;;14.20;99.90;;;;;;6218232;23;20103;-87
2022/07/24 01:27:25;;;;;;;1.35;0.80;;;14.20;99.90;;;;;;6217954;23;20539;-86
2022/07/24 01:29:51;;;;;;;2.25;0.70;;;13.70;99.90;;;;;;6217543;23;20093;-85
2022/07/24 01:32:17;;;;;;;1.67;0.50;;;14.20;99.90;;;;;;6218441;23;20404;-87
2022/07/24 01:34:43;;;;;;;1.38;0.70;;;14.10;99.90;;;;;;6245231;23;20086;-86
2022/07/24 01:37:09;;;;;;;1.90;0.70;;;14.20;99.90;;;;;;6218185;23;20016;-86
2022/07/24 01:39:35;;;;;;;0.80;0.70;;;14.70;99.90;;;;;;6245077;23;20024;-86
2022/07/24 01:42:01;;;;;;;1.17;0.80;;;14.80;99.90;;;;;;6218138;23;20051;-88
2022/07/24 01:44:30;;;;;;;1.85;0.77;;;14.10;99.90;;;;;;6245432;23;20023;-87
2022/07/24 01:46:56;;;;;;;0.82;0.60;;;14.10;99.90;;;;;;6193289;23;20439;-86
2022/07/24 01:49:21;;;;;;;1.73;0.70;;;14.10;99.90;;;;;;6218078;23;20055;-86
2022/07/24 01:51:47;;;;;;;1.08;0.60;;;14.20;99.90;;;;;;6218443;23;20022;-85
2022/07/24 01:54:13;;;;;;;1.98;0.80;;;14.50;99.90;;;;;;6217751;23;20031;-86
2022/07/24 01:56:41;;;;;;;1.20;0.70;;;14.20;99.90;;;;;;6244997;23;20020;-86
2022/07/24 01:59:06;;;;;;;1.65;0.80;;;14.30;99.90;;;;;;6217760;23;20087;-86
2022/07/24 02:01:33;;;;;;;1.63;0.80;;;14.20;99.90;;;;;;6244808;23;20059;-86
2022/07/24 02:03:58;;;;;;;1.60;0.75;;;14.20;99.90;;;;;;6217342;23;20020;-86
2022/07/24 02:06:24;;;;;;;1.90;0.80;;;14.20;99.90;;;;;;6217807;23;20051;-86
2022/07/24 02:08:50;;;;;;;0.55;0.50;;;14.20;99.90;;;;;;6218281;23;20052;-87
2022/07/24 02:11:18;;;;;;;1.50;0.75;;;14.30;99.90;;;;;;6244842;23;20391;-87
2022/07/24 02:13:44;;;;;;;0.90;0.70;;;14.30;99.90;;;;;;6193107;23;20048;-87
2022/07/24 02:16:10;;;;;;;0.80;0.70;;;14.30;99.90;;;;;;6217993;23;20332;-87
2022/07/24 02:18:36;;;;;;;1.27;0.75;;;14.30;99.90;;;;;;6244852;23;20062;-88
2022/07/24 02:21:02;;;;;;;1.17;0.68;;;14.30;99.90;;;;;;6217953;23;20031;-87
2022/07/24 02:23:28;;;;;;;1.15;0.70;;;14.40;99.90;;;;;;6217599;23;20443;-86
2022/07/24 02:25:54;;;;;;;2.10;0.90;;;14.30;99.90;;;;;;6217541;23;20027;-87
2022/07/24 02:28:19;;;;;;;1.77;0.70;;;14.30;99.90;;;;;;6244467;23;20019;-89
2022/07/24 02:30:45;;;;;;;1.15;0.77;;;14.30;99.90;;;;;;6218074;23;20063;-88
2022/07/24 02:33:11;;;;;;;0.90;0.70;;;14.30;99.90;;;;;;6218220;23;20020;-88
2022/07/24 02:35:37;;;;;;;1.50;0.60;;;14.30;99.90;;;;;;6217652;23;20066;-88
2022/07/24 02:38:04;;;;;;;0.90;0.60;;;14.30;99.90;;;;;;6244040;23;20020;-91
2022/07/24 02:40:30;;;;;;;1.17;0.70;;;14.30;99.90;;;;;;6217765;23;20028;-90
2022/07/24 02:42:55;;;;;;;1.08;0.80;;;14.50;99.90;;;;;;6219998;23;20020;-87
2022/07/24 02:45:21;;;;;;;1.23;1.08;;;14.40;99.90;;;;;;6220070;23;20464;-88
2022/07/24 02:47:54;;;;;;;1.02;0.60;;;14.40;99.90;;;;;;6220387;23;20024;-87
2022/07/24 02:50:21;;;;;;;1.13;0.88;;;14.30;99.90;;;;;;6219574;23;20016;-88
2022/07/24 02:52:47;;;;;;;1.80;0.80;;;14.30;99.90;;;;;;6246279;23;20442;-87
2022/07/24 02:55:14;;;;;;;3.22;0.85;;;14.80;99.90;;;;;;6219085;23;20031;-87
2022/07/24 02:57:40;;;;;;;0.93;0.70;;;14.30;99.90;;;;;;6246582;23;20447;-88
2022/07/24 03:00:09;;;;;;;1.08;0.68;;;14.30;99.90;;;;;;6219237;23;20320;-88
2022/07/24 03:02:37;;;;;;;1.23;0.70;;;14.30;99.90;;;;;;6246611;23;20020;-87
2022/07/24 03:05:07;;;;;;;0.80;0.60;;;14.30;99.90;;;;;;6219607;23;20043;-88
2022/07/24 03:07:36;;;;;;;1.00;0.68;;;14.40;99.90;;;;;;6246446;23;20050;-88
2022/07/24 03:10:03;;;;;;;2.08;0.93;;;14.70;99.90;;;;;;6219252;23;20023;-87
2022/07/24 03:12:28;;;;;;;1.40;0.77;;;14.40;99.90;;;;;;6246217;23;20050;-88
2022/07/24 03:14:54;;;;;;;1.27;0.70;;;14.60;99.90;;;;;;6246748;23;20023;-87
2022/07/24 03:17:20;;;;;;;1.45;0.80;;;14.30;99.90;;;;;;6246777;23;20016;-88
2022/07/24 03:19:45;;;;;;;1.70;0.70;;;14.30;99.90;;;;;;6194121;23;20089;-89
2022/07/24 03:22:11;;;;;;;2.40;0.70;;;14.40;99.90;;;;;;6219184;23;20021;-87
2022/07/24 03:24:37;;;;;;;1.77;0.70;;;14.40;99.90;;;;;;6218946;23;20354;-87
2022/07/24 03:27:03;;;;;;;0.93;0.70;;;14.40;99.90;;;;;;6219703;23;20082;-87
2022/07/24 03:29:28;;;;;;;0.80;0.65;;;14.40;99.90;;;;;;6219554;23;20467;-88
2022/07/24 03:31:56;;;;;;;1.80;1.10;;;14.40;99.90;;;;;;6219669;23;20085;-87
2022/07/24 03:34:22;;;;;;;0.95;0.70;;;14.40;99.90;;;;;;6246437;23;20097;-87
2022/07/24 03:36:47;;;;;;;1.10;0.82;;;14.40;99.90;;;;;;6219220;23;20385;-86
2022/07/24 03:39:13;;;;;;;2.05;0.73;;;14.30;99.90;;;;;;6245606;23;20052;-88
2022/07/24 03:41:39;;;;;;;1.10;0.88;;;14.40;99.90;;;;;;6219397;23;20020;-88
2022/07/24 03:44:06;;;;;;;2.33;0.80;;;14.40;99.90;;;;;;6218916;23;20016;-87
2022/07/24 03:46:32;;;;;;;0.90;0.68;;;14.40;99.90;;;;;;6246540;23;20050;-87
2022/07/24 03:48:58;;;;;;;1.23;0.88;;;14.40;99.90;;;;;;6193902;23;20023;-88
2022/07/24 03:51:26;;;;;;;1.50;0.80;;;14.40;99.90;;;;;;6218912;23;20008;-87
2022/07/24 03:53:55;;;;;;;1.08;0.73;;;14.30;99.90;;;;;;6219060;23;20020;-87
2022/07/24 03:56:21;;;;;;;1.10;0.70;;;14.40;99.90;;;;;;6219051;23;20439;-88
2022/07/24 03:58:46;;;;;;;1.40;0.68;;;14.30;99.90;;;;;;6219020;23;20020;-87
2022/07/24 04:01:12;;;;;;;1.13;0.80;;;14.40;99.90;;;;;;6219062;23;20095;-88
2022/07/24 04:03:38;;;;;;;0.90;0.60;;;14.30;99.90;;;;;;6219154;23;20012;-87
2022/07/24 04:06:05;;;;;;;1.30;0.70;;;14.40;99.90;;;;;;6246152;23;20074;-87
2022/07/24 04:08:31;;;;;;;0.90;0.70;;;14.40;99.90;;;;;;6218968;23;20024;-86
2022/07/24 04:10:57;;;;;;;1.33;0.80;;;14.50;99.90;;;;;;6245875;23;20012;-87
2022/07/24 04:13:28;;;;;;;2.10;0.90;;;14.50;99.90;;;;;;6219069;23;20017;-87
2022/07/24 04:15:54;;;;;;;1.15;0.80;;;14.50;99.90;;;;;;6219276;23;20016;-87
2022/07/24 04:18:20;;;;;;;3.08;1.00;;;14.50;99.90;;;;;;6246022;23;20386;-86
2022/07/24 04:20:46;;;;;;;1.27;0.77;;;14.40;99.90;;;;;;6218582;23;20016;-88
2022/07/24 04:23:12;;;;;;;1.23;0.70;;;14.50;99.90;;;;;;6246054;23;20019;-87
2022/07/24 04:25:38;;;;;;;1.02;0.70;;;14.50;99.90;;;;;;6193658;23;20351;-88
2022/07/24 04:28:04;;;;;;;1.00;0.70;;;14.60;99.90;;;;;;6218815;23;20099;-88
2022/07/24 04:30:30;;;;;;;1.52;0.80;;;14.50;99.90;;;;;;6219222;23;20099;-88
2022/07/24 04:32:56;;;;;;;1.23;0.80;;;14.50;99.90;;;;;;6245673;23;20016;-87
2022/07/24 04:35:22;;;;;;;1.20;0.85;;;14.60;99.90;;;;;;6218590;23;20017;-88
2022/07/24 04:37:48;;;;;;;0.80;0.60;;;14.60;99.90;;;;;;6193580;23;20058;-88
2022/07/24 04:40:14;;;;;;;1.42;0.73;;;14.60;99.90;;;;;;6218437;23;20030;-88
2022/07/24 04:42:40;;;;;;;0.98;0.65;;;14.60;99.90;;;;;;6245978;23;20016;-87
2022/07/24 04:45:08;;;;;;;0.82;0.60;;;14.60;99.90;;;;;;6218726;23;20081;-87
2022/07/24 04:47:35;;;;;;;0.60;0.60;;;14.60;99.90;;;;;;6218753;23;20012;-87
2022/07/24 04:50:01;;;;;;;1.25;0.90;;;14.70;99.90;;;;;;6218534;23;20020;-87
2022/07/24 04:52:30;;;;;;;1.80;1.00;;;14.50;99.90;;;;;;6218627;23;20051;-88
2022/07/24 04:54:55;;;;;;;2.78;0.80;;;14.70;99.90;;;;;;6244992;23;20048;-87
2022/07/24 04:57:21;;;;;;;2.28;0.82;;;14.70;99.90;;;;;;6245542;23;20020;-88
2022/07/24 04:59:47;;;;;;;0.88;0.63;;;14.70;99.90;;;;;;6218576;23;20099;-88
2022/07/24 05:02:13;;;;;;;1.48;0.90;;;14.80;99.90;;;;;;6245509;23;20020;-88
2022/07/24 05:04:39;;;;;;;1.20;0.77;;;14.90;99.90;;;;;;6218288;23;20553;-89
2022/07/24 05:07:04;;;;;;;1.45;0.75;;;14.90;99.90;;;;;;6218497;23;20031;-88
2022/07/24 05:09:30;;;;;;;1.00;0.65;;;15.00;99.90;;;;;;6218665;23;20019;-87
2022/07/24 05:11:56;;;;;;;1.40;0.80;;;15.10;99.90;;;;;;6218299;23;20024;-88
2022/07/24 05:14:22;;;;;;;0.80;0.63;;;15.50;99.90;;;;;;6218333;23;20118;-88
2022/07/24 05:16:48;;;;;;;1.90;0.73;;;15.40;99.90;;;;;;6245129;23;20040;-88
2022/07/24 05:19:16;;;;;;;1.20;0.80;;;15.40;99.90;;;;;;6218369;23;20465;-88
2022/07/24 05:21:44;;;;;;;0.95;0.70;;;15.60;99.90;;;;;;6245501;23;20020;-87
2022/07/24 05:24:10;;;;;;;1.17;0.60;;;15.60;99.90;;;;;;6245013;23;20461;-88
2022/07/24 05:26:35;;;;;;;1.60;0.90;;;15.70;99.90;;;;;;6193211;23;20103;-87
2022/07/24 05:29:05;;;;;;;1.50;0.70;;;15.90;99.90;;;;;;6244664;23;20019;-87
2022/07/24 05:31:31;;;;;;;1.08;0.68;;;15.80;99.90;;;;;;6245010;23;20020;-87
2022/07/24 05:33:58;;;;;;;3.28;0.70;;;15.90;99.90;;;;;;6245534;23;20058;-88
2022/07/24 05:36:24;;;;;;;1.02;0.70;;;15.90;99.90;;;;;;6245136;23;20013;-89
2022/07/24 05:38:50;;;;;;;1.05;0.85;;;16.00;99.90;;;;;;6218319;23;20378;-89
2022/07/24 05:41:16;;;;;;;1.23;0.80;;;16.20;99.90;;;;;;6218056;23;20024;-88
2022/07/24 05:43:42;;;;;;;1.08;0.73;;;16.10;99.90;;;;;;6218210;23;20070;-88
2022/07/24 05:46:08;;;;;;;1.50;0.80;;;16.20;99.90;;;;;;6245090;23;20389;-87
2022/07/24 05:48:36;;;;;;;1.55;0.98;;;16.20;99.90;;;;;;6244868;23;20016;-87
2022/07/24 05:51:02;;;;;;;1.52;0.60;;;16.30;99.90;;;;;;6218155;23;20020;-87
2022/07/24 05:53:27;;;;;;;1.77;0.80;;;16.40;99.90;;;;;;6192392;23;20027;-88
2022/07/24 05:55:53;;;;;;;1.15;0.70;;;16.40;99.90;;;;;;6218186;23;20103;-87
2022/07/24 05:58:19;;;;;;;2.15;0.98;;;16.50;99.90;;;;;;6217390;23;20016;-87
2022/07/24 06:00:45;;;;;;;1.30;0.85;;;16.60;99.90;;;;;;6244790;23;20026;-88
2022/07/24 06:03:11;;;;;;;1.33;0.70;;;16.70;99.90;;;;;;6218264;23;20025;-87
2022/07/24 06:05:36;;;;;;;1.00;0.70;;;16.80;99.90;;;;;;6217829;23;20338;-87
2022/07/24 06:08:03;;;;;;;1.40;0.80;;;17.00;99.90;;;;;;6216886;23;20098;-88
2022/07/24 06:10:34;;;;;;;1.38;0.82;;;17.10;99.90;;;;;;6193313;23;20016;-88
2022/07/24 06:13:00;;;;;;;1.52;1.13;;;17.30;99.90;;;;;;6217979;23;20012;-88
2022/07/24 06:15:26;;;;;;;1.33;0.93;;;17.50;99.90;;;;;;6192877;23;20447;-88
2022/07/24 06:17:54;;;;;;;1.42;0.90;;;17.90;99.90;;;;;;6218122;23;20012;-88
2022/07/24 06:20:25;;;;;;;2.60;1.13;;;17.90;99.90;;;;;;6217379;23;20056;-88
2022/07/24 06:22:51;;;;;;;1.38;0.80;;;18.50;99.90;;;;;;6217777;23;20016;-88
2022/07/24 06:25:18;;;;;;;2.42;1.20;;;18.20;99.90;;;;;;6217385;23;20491;-87
2022/07/24 06:27:46;;;;;;;2.63;1.60;;;18.20;99.90;;;;;;6244882;23;20016;-88
2022/07/24 06:30:21;;;;;;;2.58;1.23;;;18.30;99.90;;;;;;6217722;23;20451;-89
2022/07/24 06:32:47;;;;;;;7.07;1.90;;;18.30;99.90;;;;;;6244288;23;20465;-88
2022/07/24 06:35:13;;;;;;;2.38;1.55;;;18.40;99.90;;;;;;6217831;23;20095;-88
2022/07/24 06:37:42;;;;;;;2.75;1.67;;;18.60;99.90;;;;;;6244941;23;20066;-88
2022/07/24 06:40:09;;;;;;;2.80;1.73;;;18.80;99.90;;;;;;6244581;23;20031;-90
2022/07/24 06:42:38;;;;;;;3.67;2.38;;;19.10;99.90;;;;;;6219297;23;20075;-89
2022/07/24 06:45:05;;;;;;;3.42;2.60;;;19.20;99.90;;;;;;6252325;23;20016;-89
2022/07/24 06:47:30;;;;;;;5.18;2.60;;;19.40;99.90;;;;;;6248934;23;20352;-90
2022/07/24 06:49:56;;;;;;;6.07;3.75;;;19.50;99.90;;;;;;6220752;23;20024;-92
2022/07/24 06:52:22;;;;;;;5.13;3.47;;;19.80;99.90;;;;;;6249096;23;20040;-91
2022/07/24 06:54:48;;;;;;;4.80;2.88;;;20.00;99.90;;;;;;6248975;23;20056;-90
2022/07/24 06:57:26;;;;;;;;;;;;;;;;;;;;;
2022/07/24 06:59:58;;;;;;;6.10;3.65;;;20.20;99.90;;;;;;6193017;22;20355;-89
2022/07/24 07:02:56;;;;;;;5.22;3.20;;;20.40;99.90;;;;;;6182909;23;20103;-92
2022/07/24 07:06:14;;;;;;;6.15;3.05;;;20.60;99.90;;;;;;6118647;22;20025;-89
2022/07/24 07:09:01;;;;;;;6.78;4.00;;;20.60;99.90;;;;;;5951616;24;20024;-90
2022/07/24 07:16:10;;;;;;;4.10;2.40;;;21.10;99.90;;;;;;5951967;24;20016;-92
2022/07/24 07:18:36;;;;;;;6.15;3.38;;;21.50;99.90;;;;;;5928470;24;20110;-88
2022/07/24 07:21:03;;;;;;;4.72;3.30;;;21.50;99.90;;;;;;5951618;24;20402;-90
2022/07/24 07:23:28;;;;;;;5.32;3.08;;;21.60;99.90;;;;;;5951571;24;20073;-90
2022/07/24 07:25:54;;;;;;;5.35;2.53;;;21.70;99.90;;;;;;5951625;24;20024;-91
2022/07/24 07:28:20;;;;;;;6.32;2.80;;;21.80;99.90;;;;;;5929554;24;20105;-90
2022/07/24 07:30:46;;;;;;;4.40;2.92;;;21.90;99.90;;;;;;5953631;24;20024;-90
2022/07/24 07:33:12;;;;;;;8.75;4.10;;;22.00;99.90;;;;;;5953192;24;20027;-88
2022/07/24 07:35:41;;;;;;;4.32;3.13;;;22.20;99.90;;;;;;5907254;24;20021;-90
2022/07/24 07:38:09;;;;;;;5.35;2.83;;;22.30;99.90;;;;;;5930084;24;20123;-88
2022/07/24 07:40:35;;;;;;;4.07;2.83;;;22.50;99.90;;;;;;5929813;24;20475;-91
2022/07/24 07:43:01;;;;;;;5.82;4.10;;;22.60;99.90;;;;;;5930239;24;20020;-88
2022/07/24 07:45:27;;;;;;;5.03;3.50;;;22.90;99.90;;;;;;6070081;23;20045;-89
2022/07/24 07:47:53;;;;;;;5.90;2.90;;;23.00;99.90;;;;;;6130431;23;20017;-91
2022/07/24 07:50:18;;;;;;;3.35;2.08;;;23.10;99.90;;;;;;6129929;23;20053;-90
2022/07/24 07:52:44;;;;;;;5.20;2.92;;;23.30;99.90;;;;;;6130409;23;20104;-91
2022/07/24 07:55:10;;;;;;;5.38;2.00;;;23.50;99.90;;;;;;6130460;23;20049;-88
2022/07/24 08:09:03;;;;;;;3.75;1.40;;;24.00;99.90;;;;;;6179451;23;20068;-92
2022/07/24 08:11:29;;;;;;;1.60;1.20;;;24.00;99.90;;;;;;6155830;23;20077;-93
2022/07/24 08:13:54;;;;;;;3.03;1.40;;;24.30;99.90;;;;;;6157474;23;20013;-94
2022/07/24 08:16:20;;;;;;;2.63;1.25;;;24.50;99.90;;;;;;6156289;23;20461;-91
2022/07/24 08:18:46;;;;;;;2.63;1.15;;;24.60;99.90;;;;;;6105849;23;20058;-90
2022/07/24 08:21:25;;;;;;;1.55;0.90;;;24.50;99.90;;;;;;6129820;23;20021;-90
2022/07/24 08:23:51;;;;;;;2.35;1.00;;;24.40;99.90;;;;;;6130303;23;20018;-91
2022/07/24 08:26:17;;;;;;;1.73;1.02;;;24.30;99.90;;;;;;6129653;23;20028;-92
2022/07/24 08:28:43;;;;;;;2.15;1.35;;;24.50;99.90;;;;;;6156180;23;20383;-91
2022/07/24 08:31:08;;;;;;;2.88;1.00;;;24.60;99.90;;;;;;6130157;23;20017;-93
2022/07/24 08:33:34;;;;;;;1.33;0.90;;;24.70;99.90;;;;;;6129981;23;20349;-92
2022/07/24 08:36:00;;;;;;;1.98;1.40;;;24.90;99.90;;;;;;6130073;23;20018;-89
2022/07/24 08:38:26;;;;;;;2.70;1.17;;;25.00;99.90;;;;;;6156286;23;20017;-90
2022/07/24 08:40:51;;;;;;;2.22;1.10;;;25.20;99.90;;;;;;6130529;23;20026;-91
2022/07/24 08:47:16;;;;;;;2.03;1.15;;;25.20;99.90;;;;;;6183480;23;20035;-87
2022/07/24 08:49:46;;;;;;;1.95;1.10;;;25.10;99.90;;;;;;6094890;23;20033;-91
2022/07/24 08:52:14;;;;;;;1.35;1.00;;;25.10;99.70;;;;;;6097210;23;20349;-89
2022/07/24 08:54:41;;;;;;;2.25;1.33;;;25.20;99.90;;;;;;6077324;23;20022;-88
2022/07/24 08:57:07;;;;;;;2.00;1.20;;;25.10;99.40;;;;;;6077706;23;20113;-95
2022/07/24 08:59:34;;;;;;;1.88;0.95;;;25.10;99.90;;;;;;6099407;23;20019;-89
2022/07/24 09:02:01;;;;;;;4.05;1.25;;;25.10;99.80;;;;;;6097578;23;20015;-91
2022/07/24 09:04:37;;;;;;;2.92;1.20;;;25.10;99.90;;;;;;6075794;23;20069;-90
2022/07/24 09:07:11;;;;;;;3.30;1.10;;;25.10;99.90;;;;;;6099215;23;20050;-90
2022/07/24 09:09:38;;;;;;;2.10;1.10;;;25.20;99.90;;;;;;6101703;23;20029;-89
2022/07/24 09:12:17;;;;;;;1.80;1.13;;;25.20;99.60;;;;;;6100455;23;20058;-90
2022/07/24 09:14:47;;;;;;;1.60;0.98;;;25.30;99.90;;;;;;6071467;23;20345;-89
2022/07/24 09:17:15;;;;;;;1.73;1.00;;;25.40;99.90;;;;;;6070665;23;20018;-91
2022/07/24 09:19:50;;;;;;;2.30;1.20;;;25.50;99.90;;;;;;6095841;23;20349;-88
2022/07/24 09:22:45;;;;;;;1.63;0.90;;;25.50;99.40;;;;;;6076885;23;20025;-94
2022/07/24 09:25:13;;;;;;;2.17;1.00;;;25.50;99.00;;;;;;6049137;23;20022;-90
2022/07/24 09:27:52;;;;;;;1.85;1.00;;;25.50;99.60;;;;;;6070056;23;20023;-91
2022/07/24 09:30:36;;;;;;;1.20;0.90;;;25.70;99.90;;;;;;6071902;23;20030;-88
2022/07/24 09:33:11;;;;;;;1.30;1.10;;;25.90;99.80;;;;;;6068431;23;20486;-91
2022/07/24 09:35:40;;;;;;;2.80;0.90;;;26.10;99.90;;;;;;6067031;23;20066;-90
2022/07/24 09:38:10;;;;;;;1.25;0.90;;;26.40;99.70;;;;;;6045513;23;20019;-93
2022/07/24 09:40:39;;;;;;;2.92;1.35;;;26.60;98.70;;;;;;6070261;23;20023;-91
2022/07/24 09:43:30;;;;;;;2.97;1.15;;;26.70;98.60;;;;;;6044662;23;20058;-85
2022/07/24 09:45:55;;;;;;;2.17;0.80;;;26.80;98.50;;;;;;6043094;23;20090;-92
2022/07/24 09:48:26;;;;;;;3.17;1.10;;;26.80;98.80;;;;;;6056344;23;20027;-86
2022/07/24 09:50:53;;;;;;;1.52;1.20;;;26.90;98.10;;;;;;6037139;23;20015;-85
2022/07/24 09:53:22;;;;;;;2.35;1.10;;;27.20;98.90;;;;;;6037250;23;20526;-87
2022/07/24 09:56:13;;;;;;;1.73;0.88;;;27.30;97.80;;;;;;6013007;23;20051;-86
2022/07/24 09:58:46;;;;;;;1.10;0.90;;;27.50;99.10;;;;;;6037630;23;20430;-88
2022/07/24 10:01:33;;;;;;;3.42;1.10;;;27.60;98.00;;;;;;6056632;23;20028;-86
2022/07/24 10:04:00;;;;;;;1.60;0.90;;;27.60;96.00;;;;;;6130954;23;20028;-85
2022/07/24 10:06:27;;;;;;;2.15;1.02;;;27.50;96.40;;;;;;6130983;23;20021;-87
2022/07/24 10:08:54;;;;;;;1.90;0.90;;;27.60;97.20;;;;;;6130284;23;20072;-86
2022/07/24 10:11:20;;;;;;;3.33;1.10;;;27.60;97.10;;;;;;6129724;23;20031;-88
2022/07/24 10:13:46;;;;;;;1.63;0.82;;;27.50;96.70;;;;;;6130165;23;20356;-86
2022/07/24 10:16:14;;;;;;;1.80;0.80;;;27.40;96.90;;;;;;6155449;23;20032;-86
2022/07/24 10:18:55;;;;;;;3.40;0.80;;;27.50;96.40;;;;;;6131722;23;20024;-86
2022/07/24 10:21:46;;;;;;;1.48;0.90;;;27.60;96.30;;;;;;6155978;23;20336;-86
2022/07/24 10:24:20;;;;;;;1.38;0.88;;;27.70;96.60;;;;;;6154283;23;20017;-86
2022/07/24 10:26:49;;;;;;;1.40;0.70;;;27.90;97.10;;;;;;6131593;23;20022;-87
2022/07/24 10:29:24;;;;;;;1.70;0.93;;;27.80;96.00;;;;;;6156780;23;20029;-86
2022/07/24 10:31:56;;;;;;;2.95;1.10;;;27.50;95.30;;;;;;6106397;23;20036;-88
2022/07/24 10:35:00;;;;;;;2.45;1.00;;;27.50;95.50;;;;;;6130855;23;20348;-86
2022/07/24 10:37:42;;;;;;;1.85;0.90;;;27.30;95.90;;;;;;6100763;23;20032;-86
2022/07/24 10:40:30;;;;;;;1.30;0.70;;;27.20;95.70;;;;;;6125810;23;20130;-88
2022/07/24 10:43:25;;;;;;;1.50;0.90;;;27.20;95.80;;;;;;6125803;23;20025;-86
2022/07/24 10:45:53;;;;;;;1.65;1.00;;;27.20;95.10;;;;;;6038343;23;20055;-87
2022/07/24 10:48:23;;;;;;;1.35;0.80;;;27.20;94.60;;;;;;6049475;23;20327;-90
2022/07/24 10:51:00;;;;;;;1.48;0.80;;;27.20;95.60;;;;;;6066530;23;20347;-86
2022/07/24 10:53:29;;;;;;;2.33;0.80;;;27.60;96.10;;;;;;6042121;23;20029;-87
2022/07/24 10:56:38;;;;;;;2.00;1.00;;;27.90;95.20;;;;;;6066779;23;20467;-88
2022/07/24 10:59:10;;;;;;;1.27;0.80;;;28.10;94.90;;;;;;6066861;23;20025;-89
2022/07/24 11:02:06;;;;;;;1.23;0.80;;;28.00;94.30;;;;;;6066690;23;20034;-88
2022/07/24 11:04:32;;;;;;;2.08;0.98;;;27.90;94.50;;;;;;6066587;23;20053;-87
2022/07/24 11:07:10;;;;;;;1.23;0.80;;;27.60;93.90;;;;;;6046140;23;20370;-88
2022/07/24 11:10:07;;;;;;;1.40;0.70;;;27.50;94.20;;;;;;6051224;23;20051;-86
2022/07/24 11:12:41;;;;;;;3.50;0.68;;;27.40;93.90;;;;;;6056491;23;20022;-88
2022/07/24 11:18:15;;;;;;;1.10;0.70;;;27.50;95.20;;;;;;6073875;23;20019;-89
2022/07/24 11:20:41;;;;;;;2.55;0.98;;;27.70;94.90;;;;;;6078193;23;20022;-93
2022/07/24 11:23:20;;;;;;;1.55;1.10;;;27.70;94.10;;;;;;6053285;23;20043;-89
2022/07/24 11:25:46;;;;;;;1.88;0.80;;;27.90;93.50;;;;;;6023727;23;20038;-92
2022/07/24 11:28:16;;;;;;;1.40;0.90;;;28.10;93.90;;;;;;6048806;23;20023;-92
2022/07/24 11:30:44;;;;;;;4.43;1.15;;;28.20;93.80;;;;;;6048824;23;20102;-89
2022/07/24 11:33:11;;;;;;;1.80;0.93;;;28.40;92.90;;;;;;6050469;23;20393;-93
2022/07/24 11:35:38;;;;;;;1.25;0.90;;;28.40;92.90;;;;;;6045822;23;20027;-93
2022/07/24 11:38:07;;;;;;;1.45;0.90;;;28.30;92.90;;;;;;6044979;23;20082;-90
2022/07/24 11:40:33;;;;;;;2.28;0.90;;;28.20;93.00;;;;;;6044729;23;20027;-91
2022/07/24 11:43:05;;;;;;;1.60;1.00;;;28.10;93.60;;;;;;6069380;23;20029;-91
2022/07/24 11:45:31;;;;;;;3.60;0.88;;;28.10;92.80;;;;;;6069930;23;20112;-91
2022/07/24 11:47:57;;;;;;;1.85;0.82;;;28.20;92.50;;;;;;6036747;23;20082;-94
2022/07/24 11:50:26;;;;;;;1.77;1.10;;;28.20;92.90;;;;;;6040183;23;20073;-88
2022/07/24 11:52:52;;;;;;;2.05;1.00;;;28.30;93.10;;;;;;6039431;23;20021;-94
2022/07/24 11:55:24;;;;;;;1.15;0.73;;;28.40;92.70;;;;;;6132296;23;20562;-92
2022/07/24 11:57:52;;;;;;;0.80;0.60;;;28.50;91.70;;;;;;6157778;23;20017;-91
2022/07/24 12:00:26;;;;;;;1.63;0.60;;;28.40;92.30;;;;;;6132605;23;20032;-94
2022/07/24 12:02:56;;;;;;;1.52;0.90;;;28.50;92.90;;;;;;6158435;23;20013;-92
2022/07/24 12:05:33;;;;;;;1.23;0.65;;;28.60;92.50;;;;;;6131284;23;20025;-89
2022/07/24 12:08:00;;;;;;;1.23;0.80;;;28.80;92.90;;;;;;6157179;23;20356;-92
2022/07/24 12:10:27;;;;;;;2.88;0.90;;;29.00;93.00;;;;;;6132605;23;20017;-93
2022/07/24 12:22:55;;;;;;;0.95;0.80;;;29.80;91.40;;;;;;6193814;23;20090;-85
2022/07/24 13:00:03;;;;;;;1.58;0.70;;;30.70;89.70;;;;;;6214074;22;20021;-89
2022/07/24 13:02:47;;;;;;;2.72;0.80;;;30.90;87.10;;;;;;6156113;23;20132;-90
2022/07/24 13:11:16;;;;;;;1.92;0.80;;;31.40;84.00;;;;;;6196382;22;20025;-87
2022/07/24 13:13:54;;;;;;;1.23;0.80;;;31.60;84.80;;;;;;6158480;23;20055;-90
2022/07/24 13:16:35;;;;;;;1.52;0.82;;;31.60;85.40;;;;;;6156886;23;20083;-91
2022/07/24 13:31:20;;;;;;;0.93;0.70;;;32.00;81.50;;;;;;6214454;23;20032;-87
2022/07/24 13:33:49;;;;;;;1.27;0.80;;;31.90;80.20;;;;;;6215494;23;20172;-88
2022/07/24 13:39:14;;;;;;;1.00;0.70;;;31.80;80.40;;;;;;6210417;22;20033;-90
2022/07/24 13:41:41;;;;;;;0.98;0.73;;;31.90;80.50;;;;;;6158638;23;20360;-87
2022/07/24 13:44:10;;;;;;;2.58;0.80;;;31.90;82.20;;;;;;6158749;23;20100;-89
2022/07/24 13:49:08;;;;;;;2.78;0.80;;;32.00;79.30;;;;;;6211417;22;20020;-90
2022/07/24 13:51:37;;;;;;;1.00;0.80;;;32.00;79.90;;;;;;6187828;23;20036;-87
2022/07/24 13:54:06;;;;;;;0.73;0.60;;;32.10;79.90;;;;;;6188094;23;20113;-89
2022/07/24 13:56:34;;;;;;;1.15;0.60;;;32.20;78.30;;;;;;6187338;23;20024;-89
2022/07/24 13:59:00;;;;;;;1.75;0.80;;;32.20;79.30;;;;;;6187973;23;20055;-88
2022/07/24 14:01:28;;;;;;;1.30;0.80;;;32.10;76.90;;;;;;6188266;23;20335;-85
2022/07/24 14:03:54;;;;;;;1.48;0.90;;;32.10;77.30;;;;;;6214920;23;20343;-91
2022/07/24 14:06:32;;;;;;;1.17;0.85;;;32.20;78.70;;;;;;6208474;23;20028;-88
2022/07/24 14:09:28;;;;;;;1.65;1.00;;;32.20;77.60;;;;;;6218089;23;20039;-89
2022/07/24 14:11:54;;;;;;;1.13;0.90;;;32.10;77.60;;;;;;6216871;23;20016;-89
2022/07/24 14:14:20;;;;;;;1.45;0.75;;;32.20;77.90;;;;;;6192854;23;20446;-87
2022/07/24 14:16:47;;;;;;;2.72;0.70;;;32.10;76.30;;;;;;6217669;23;20016;-87
2022/07/24 14:19:12;;;;;;;2.15;0.65;;;32.10;75.60;;;;;;6217727;23;20347;-86
2022/07/24 14:21:38;;;;;;;1.10;0.73;;;32.10;76.20;;;;;;6245025;23;20020;-88
2022/07/24 14:24:04;;;;;;;1.58;0.85;;;32.30;76.60;;;;;;6218126;23;20016;-87
2022/07/24 14:26:30;;;;;;;1.58;0.80;;;32.40;74.00;;;;;;6217572;23;20024;-85
2022/07/24 14:28:56;;;;;;;2.53;0.90;;;32.50;75.80;;;;;;6244813;23;20023;-84